sensor_id;sensor_type;location;lat;lon;timestamp;pressure;altitude;pressure_sealevel;temperature
15144;BMP180;7672;50.834;6.286;2023-04-03T00:01:06;100906.81;;;7.02
15144;BMP180;7672;50.834;6.286;2023-04-03T00:03:33;100897.50;;;6.99
15144;BMP180;7672;50.834;6.286;2023-04-03T00:06:02;100893.28;;;6.98
15144;BMP180;7672;50.834;6.286;2023-04-03T00:08:29;100897.28;;;6.93
15144;BMP180;7672;50.834;6.286;2023-04-03T00:10:59;100893.81;;;6.90
15144;BMP180;7672;50.834;6.286;2023-04-03T00:13:26;100897.81;;;6.85
15144;BMP180;7672;50.834;6.286;2023-04-03T00:15:52;100896.84;;;6.81
15144;BMP180;7672;50.834;6.286;2023-04-03T00:18:19;100899.16;;;6.77
15144;BMP180;7672;50.834;6.286;2023-04-03T00:20:47;100901.56;;;6.74
15144;BMP180;7672;50.834;6.286;2023-04-03T00:23:14;100898.06;;;6.71
15144;BMP180;7672;50.834;6.286;2023-04-03T00:25:41;100912.25;;;6.69
15144;BMP180;7672;50.834;6.286;2023-04-03T00:28:08;100908.81;;;6.67
15144;BMP180;7672;50.834;6.286;2023-04-03T00:30:35;100908.81;;;6.67
15144;BMP180;7672;50.834;6.286;2023-04-03T00:33:02;100910.53;;;6.68
15144;BMP180;7672;50.834;6.286;2023-04-03T00:35:29;100919.78;;;6.69
15144;BMP180;7672;50.834;6.286;2023-04-03T00:37:56;100908.19;;;6.72
15144;BMP180;7672;50.834;6.286;2023-04-03T00:40:25;100906.66;;;6.75
15144;BMP180;7672;50.834;6.286;2023-04-03T00:42:58;100911.06;;;6.81
15144;BMP180;7672;50.834;6.286;2023-04-03T00:45:37;100906.97;;;6.84
15144;BMP180;7672;50.834;6.286;2023-04-03T00:48:07;100913.03;;;6.89
15144;BMP180;7672;50.834;6.286;2023-04-03T00:50:38;100913.22;;;6.94
15144;BMP180;7672;50.834;6.286;2023-04-03T00:53:17;100908.31;;;6.97
15144;BMP180;7672;50.834;6.286;2023-04-03T00:55:47;100907.47;;;6.96
15144;BMP180;7672;50.834;6.286;2023-04-03T00:58:18;100910.88;;;6.98
15144;BMP180;7672;50.834;6.286;2023-04-03T01:00:52;100910.75;;;6.95
15144;BMP180;7672;50.834;6.286;2023-04-03T01:03:23;100908.19;;;6.94
15144;BMP180;7672;50.834;6.286;2023-04-03T01:05:50;100907.31;;;6.93
15144;BMP180;7672;50.834;6.286;2023-04-03T01:08:17;100907.31;;;6.93
15144;BMP180;7672;50.834;6.286;2023-04-03T01:10:44;100911.50;;;6.93
15144;BMP180;7672;50.834;6.286;2023-04-03T01:13:29;100913.28;;;6.95
15144;BMP180;7672;50.834;6.286;2023-04-03T01:15:57;100906.47;;;6.93
15144;BMP180;7672;50.834;6.286;2023-04-03T01:18:26;100905.69;;;6.94
15144;BMP180;7672;50.834;6.286;2023-04-03T01:26:37;100908.25;;;6.95
15144;BMP180;7672;50.834;6.286;2023-04-03T01:29:04;100906.59;;;6.96
15144;BMP180;7672;50.834;6.286;2023-04-03T01:31:55;100916.69;;;6.97
15144;BMP180;7672;50.834;6.286;2023-04-03T01:34:23;100912.50;;;6.96
15144;BMP180;7672;50.834;6.286;2023-04-03T01:36:51;100910.88;;;6.98
15144;BMP180;7672;50.834;6.286;2023-04-03T01:39:19;100915.09;;;6.99
15144;BMP180;7672;50.834;6.286;2023-04-03T01:41:47;100915.94;;;7.00
15144;BMP180;7672;50.834;6.286;2023-04-03T01:44:14;100914.31;;;7.00
15144;BMP180;7672;50.834;6.286;2023-04-03T01:46:41;100906.78;;;7.00
15144;BMP180;7672;50.834;6.286;2023-04-03T01:49:09;100908.50;;;7.01
15144;BMP180;7672;50.834;6.286;2023-04-03T01:51:36;100916.81;;;7.00
15144;BMP180;7672;50.834;6.286;2023-04-03T01:54:03;100918.53;;;7.01
15144;BMP180;7672;50.834;6.286;2023-04-03T01:56:30;100919.28;;;6.99
15144;BMP180;7672;50.834;6.286;2023-04-03T01:58:57;100914.13;;;6.96
15144;BMP180;7672;50.834;6.286;2023-04-03T02:01:24;100920.81;;;6.95
15144;BMP180;7672;50.834;6.286;2023-04-03T02:03:52;100918.31;;;6.95
15144;BMP180;7672;50.834;6.286;2023-04-03T02:06:19;100922.53;;;6.96
15144;BMP180;7672;50.834;6.286;2023-04-03T02:08:46;100923.34;;;6.95
15144;BMP180;7672;50.834;6.286;2023-04-03T02:11:13;100919.16;;;6.96
15144;BMP180;7672;50.834;6.286;2023-04-03T02:13:39;100922.50;;;6.95
15144;BMP180;7672;50.834;6.286;2023-04-03T02:16:09;100927.56;;;6.96
15144;BMP180;7672;50.834;6.286;2023-04-03T02:18:37;100920.81;;;6.95
15144;BMP180;7672;50.834;6.286;2023-04-03T02:21:04;100933.38;;;6.95
15144;BMP180;7672;50.834;6.286;2023-04-03T02:23:31;100933.38;;;6.95
15144;BMP180;7672;50.834;6.286;2023-04-03T02:26:11;100933.34;;;6.94
15144;BMP180;7672;50.834;6.286;2023-04-03T02:28:38;100924.81;;;6.90
15144;BMP180;7672;50.834;6.286;2023-04-03T02:31:07;100931.44;;;6.88
15144;BMP180;7672;50.834;6.286;2023-04-03T02:33:35;100931.44;;;6.88
15144;BMP180;7672;50.834;6.286;2023-04-03T02:36:05;100927.09;;;6.84
15144;BMP180;7672;50.834;6.286;2023-04-03T02:38:32;100930.41;;;6.83
15144;BMP180;7672;50.834;6.286;2023-04-03T02:41:02;100937.03;;;6.81
15144;BMP180;7672;50.834;6.286;2023-04-03T02:43:29;100936.94;;;6.78
15144;BMP180;7672;50.834;6.286;2023-04-03T02:45:56;100934.34;;;6.77
15144;BMP180;7672;50.834;6.286;2023-04-03T02:48:24;100935.06;;;6.74
15144;BMP180;7672;50.834;6.286;2023-04-03T02:50:51;100932.50;;;6.73
15144;BMP180;7672;50.834;6.286;2023-04-03T02:53:19;100941.66;;;6.71
15144;BMP180;7672;50.834;6.286;2023-04-03T02:55:46;100944.19;;;6.71
15144;BMP180;7672;50.834;6.286;2023-04-03T02:58:13;100936.56;;;6.70
15144;BMP180;7672;50.834;6.286;2023-04-03T03:00:40;100945.75;;;6.69
15144;BMP180;7672;50.834;6.286;2023-04-03T03:03:07;100931.41;;;6.67
15144;BMP180;7672;50.834;6.286;2023-04-03T03:05:34;100943.13;;;6.66
15144;BMP180;7672;50.834;6.286;2023-04-03T03:08:01;100934.56;;;6.61
15144;BMP180;7672;50.834;6.286;2023-04-03T03:10:27;100943.69;;;6.59
15144;BMP180;7672;50.834;6.286;2023-04-03T03:12:54;100938.59;;;6.58
15144;BMP180;7672;50.834;6.286;2023-04-03T03:15:21;100927.63;;;6.56
15144;BMP180;7672;50.834;6.286;2023-04-03T03:17:48;100939.28;;;6.54
15144;BMP180;7672;50.834;6.286;2023-04-03T03:20:15;100934.25;;;6.54
15144;BMP180;7672;50.834;6.286;2023-04-03T03:22:42;100935.84;;;6.52
15144;BMP180;7672;50.834;6.286;2023-04-03T03:25:09;100933.28;;;6.50
15144;BMP180;7672;50.834;6.286;2023-04-03T03:27:35;100923.97;;;6.48
15144;BMP180;7672;50.834;6.286;2023-04-03T03:30:04;100932.28;;;6.47
15144;BMP180;7672;50.834;6.286;2023-04-03T03:32:31;100928.88;;;6.45
15144;BMP180;7672;50.834;6.286;2023-04-03T03:34:57;100934.63;;;6.42
15144;BMP180;7672;50.834;6.286;2023-04-03T03:37:24;100939.66;;;6.42
15144;BMP180;7672;50.834;6.286;2023-04-03T03:39:51;100933.66;;;6.39
15144;BMP180;7672;50.834;6.286;2023-04-03T03:42:18;100936.09;;;6.37
15144;BMP180;7672;50.834;6.286;2023-04-03T03:44:44;100940.19;;;6.35
15144;BMP180;7672;50.834;6.286;2023-04-03T03:47:11;100942.72;;;6.35
15144;BMP180;7672;50.834;6.286;2023-04-03T03:49:38;100940.94;;;6.33
15144;BMP180;7672;50.834;6.286;2023-04-03T03:52:05;100942.59;;;6.32
15144;BMP180;7672;50.834;6.286;2023-04-03T03:54:32;100940.03;;;6.31
15144;BMP180;7672;50.834;6.286;2023-04-03T03:56:58;100941.75;;;6.32
15144;BMP180;7672;50.834;6.286;2023-04-03T03:59:26;100941.59;;;6.29
15144;BMP180;7672;50.834;6.286;2023-04-03T04:01:52;100948.28;;;6.28
15144;BMP180;7672;50.834;6.286;2023-04-03T04:04:19;100937.41;;;6.28
15144;BMP180;7672;50.834;6.286;2023-04-03T04:06:46;100936.03;;;6.56
15144;BMP180;7672;50.834;6.286;2023-04-03T04:09:13;100937.91;;;6.62
15144;BMP180;7672;50.834;6.286;2023-04-03T04:11:40;100934.16;;;6.51
15144;BMP180;7672;50.834;6.286;2023-04-03T04:14:07;100955.56;;;6.43
15144;BMP180;7672;50.834;6.286;2023-04-03T04:16:34;100953.63;;;6.36
15144;BMP180;7672;50.834;6.286;2023-04-03T04:19:01;100952.59;;;6.31
15144;BMP180;7672;50.834;6.286;2023-04-03T04:21:27;100953.31;;;6.28
15144;BMP180;7672;50.834;6.286;2023-04-03T04:23:54;100957.34;;;6.25
15144;BMP180;7672;50.834;6.286;2023-04-03T04:26:21;100961.47;;;6.23
15144;BMP180;7672;50.834;6.286;2023-04-03T04:28:48;100963.84;;;6.20
15144;BMP180;7672;50.834;6.286;2023-04-03T04:31:14;100961.22;;;6.17
15144;BMP180;7672;50.834;6.286;2023-04-03T04:33:41;100961.09;;;6.14
15144;BMP180;7672;50.834;6.286;2023-04-03T04:36:08;100965.19;;;6.12
15144;BMP180;7672;50.834;6.286;2023-04-03T04:38:35;100958.38;;;6.10
15144;BMP180;7672;50.834;6.286;2023-04-03T04:41:02;100961.63;;;6.07
15144;BMP180;7672;50.834;6.286;2023-04-03T04:43:29;100967.31;;;6.03
15144;BMP180;7672;50.834;6.286;2023-04-03T04:46:10;100976.47;;;6.03
15144;BMP180;7672;50.834;6.286;2023-04-03T04:48:38;100978.03;;;5.99
15144;BMP180;7672;50.834;6.286;2023-04-03T04:51:05;100972.00;;;5.96
15144;BMP180;7672;50.834;6.286;2023-04-03T04:53:32;100971.16;;;5.95
15144;BMP180;7672;50.834;6.286;2023-04-03T04:55:59;100983.63;;;5.94
15144;BMP180;7672;50.834;6.286;2023-04-03T04:58:26;100985.28;;;5.93
15144;BMP180;7672;50.834;6.286;2023-04-03T05:01:06;100978.47;;;5.91
15144;BMP180;7672;50.834;6.286;2023-04-03T05:03:33;100975.03;;;5.89
15144;BMP180;7672;50.834;6.286;2023-04-03T05:06:00;100971.63;;;5.87
15144;BMP180;7672;50.834;6.286;2023-04-03T05:08:27;100976.66;;;5.87
15144;BMP180;7672;50.834;6.286;2023-04-03T05:10:53;100980.81;;;5.86
15144;BMP180;7672;50.834;6.286;2023-04-03T05:13:22;100981.72;;;5.88
15144;BMP180;7672;50.834;6.286;2023-04-03T05:15:49;100990.91;;;5.88
15144;BMP180;7672;50.834;6.286;2023-04-03T05:18:15;100987.59;;;5.89
15144;BMP180;7672;50.834;6.286;2023-04-03T05:20:42;100982.56;;;5.89
15144;BMP180;7672;50.834;6.286;2023-04-03T05:23:11;100997.72;;;5.90
15144;BMP180;7672;50.834;6.286;2023-04-03T05:25:39;100997.72;;;5.90
15144;BMP180;7672;50.834;6.286;2023-04-03T05:28:21;101001.06;;;5.91
15144;BMP180;7672;50.834;6.286;2023-04-03T05:30:59;100997.84;;;5.93
15144;BMP180;7672;50.834;6.286;2023-04-03T05:33:33;100999.69;;;5.97
15144;BMP180;7672;50.834;6.286;2023-04-03T05:36:29;101004.97;;;6.03
15144;BMP180;7672;50.834;6.286;2023-04-03T05:39:12;101009.53;;;6.12
15144;BMP180;7672;50.834;6.286;2023-04-03T05:41:52;101007.44;;;6.22
15144;BMP180;7672;50.834;6.286;2023-04-03T05:44:22;101007.88;;;6.32
15144;BMP180;7672;50.834;6.286;2023-04-03T05:46:49;101011.81;;;6.46
15144;BMP180;7672;50.834;6.286;2023-04-03T05:49:15;101011.56;;;6.61
15144;BMP180;7672;50.834;6.286;2023-04-03T05:51:43;101029.03;;;6.78
15144;BMP180;7672;50.834;6.286;2023-04-03T05:54:18;101019.66;;;6.94
15144;BMP180;7672;50.834;6.286;2023-04-03T05:56:46;101018.56;;;7.10
15144;BMP180;7672;50.834;6.286;2023-04-03T05:59:13;101020.94;;;7.27
15144;BMP180;7672;50.834;6.286;2023-04-03T06:01:40;101017.56;;;7.48
15144;BMP180;7672;50.834;6.286;2023-04-03T06:04:07;101028.34;;;7.68
15144;BMP180;7672;50.834;6.286;2023-04-03T06:06:54;101023.38;;;7.93
15144;BMP180;7672;50.834;6.286;2023-04-03T06:09:24;101026.66;;;8.13
15144;BMP180;7672;50.834;6.286;2023-04-03T06:11:52;101029.13;;;8.35
15144;BMP180;7672;50.834;6.286;2023-04-03T06:14:19;101032.44;;;8.59
15144;BMP180;7672;50.834;6.286;2023-04-03T06:16:46;101025.69;;;8.84
15144;BMP180;7672;50.834;6.286;2023-04-03T06:19:13;101028.22;;;9.11
15144;BMP180;7672;50.834;6.286;2023-04-03T06:21:40;101035.81;;;9.38
15144;BMP180;7672;50.834;6.286;2023-04-03T06:24:07;101033.28;;;9.66
15144;BMP180;7672;50.834;6.286;2023-04-03T06:26:34;101039.97;;;9.93
15144;BMP180;7672;50.834;6.286;2023-04-03T06:29:01;101034.84;;;10.20
15144;BMP180;7672;50.834;6.286;2023-04-03T06:31:29;101027.00;;;10.43
15144;BMP180;7672;50.834;6.286;2023-04-03T06:33:56;101027.59;;;10.65
15144;BMP180;7672;50.834;6.286;2023-04-03T06:36:23;101038.25;;;10.88
15144;BMP180;7672;50.834;6.286;2023-04-03T06:38:50;101035.38;;;11.08
15144;BMP180;7672;50.834;6.286;2023-04-03T06:41:17;101024.03;;;11.29
15144;BMP180;7672;50.834;6.286;2023-04-03T06:43:44;101023.81;;;11.56
15144;BMP180;7672;50.834;6.286;2023-04-03T06:46:20;101027.88;;;11.89
15144;BMP180;7672;50.834;6.286;2023-04-03T06:48:48;101026.03;;;12.23
15144;BMP180;7672;50.834;6.286;2023-04-03T06:51:27;101026.00;;;12.72
15144;BMP180;7672;50.834;6.286;2023-04-03T06:53:58;101023.41;;;13.19
15144;BMP180;7672;50.834;6.286;2023-04-03T06:56:26;101020.69;;;13.67
15144;BMP180;7672;50.834;6.286;2023-04-03T06:58:55;101018.81;;;14.24
15144;BMP180;7672;50.834;6.286;2023-04-03T07:01:27;101018.47;;;14.80
15144;BMP180;7672;50.834;6.286;2023-04-03T07:03:55;101015.47;;;15.30
15144;BMP180;7672;50.834;6.286;2023-04-03T07:06:22;101019.94;;;15.76
15144;BMP180;7672;50.834;6.286;2023-04-03T07:08:49;101020.91;;;16.18
15144;BMP180;7672;50.834;6.286;2023-04-03T07:11:16;101015.03;;;16.55
15144;BMP180;7672;50.834;6.286;2023-04-03T07:13:43;101015.88;;;17.01
15144;BMP180;7672;50.834;6.286;2023-04-03T07:16:10;101026.03;;;17.50
15144;BMP180;7672;50.834;6.286;2023-04-03T07:18:37;101025.84;;;17.98
15144;BMP180;7672;50.834;6.286;2023-04-03T07:21:04;101025.56;;;18.50
15144;BMP180;7672;50.834;6.286;2023-04-03T07:23:31;101014.88;;;19.01
15144;BMP180;7672;50.834;6.286;2023-04-03T07:25:58;101025.50;;;19.50
15144;BMP180;7672;50.834;6.286;2023-04-03T07:28:25;101017.25;;;19.95
15144;BMP180;7672;50.834;6.286;2023-04-03T07:31:08;101028.63;;;20.39
15144;BMP180;7672;50.834;6.286;2023-04-03T07:33:39;101018.81;;;20.65
15144;BMP180;7672;50.834;6.286;2023-04-03T07:36:07;101014.03;;;20.95
15144;BMP180;7672;50.834;6.286;2023-04-03T07:38:35;101024.50;;;21.31
15144;BMP180;7672;50.834;6.286;2023-04-03T07:41:04;101018.81;;;21.61
15144;BMP180;7672;50.834;6.286;2023-04-03T07:43:31;101022.34;;;21.96
15144;BMP180;7672;50.834;6.286;2023-04-03T07:45:59;101015.09;;;22.13
15144;BMP180;7672;50.834;6.286;2023-04-03T07:48:26;101021.00;;;22.18
15144;BMP180;7672;50.834;6.286;2023-04-03T07:50:53;101026.78;;;22.31
15144;BMP180;7672;50.834;6.286;2023-04-03T07:53:20;101023.91;;;22.42
15144;BMP180;7672;50.834;6.286;2023-04-03T07:55:48;101026.69;;;22.34
15144;BMP180;7672;50.834;6.286;2023-04-03T07:58:18;101028.56;;;22.27
15144;BMP180;7672;50.834;6.286;2023-04-03T08:00:46;101035.13;;;22.01
15144;BMP180;7672;50.834;6.286;2023-04-03T08:03:15;101033.25;;;21.68
15144;BMP180;7672;50.834;6.286;2023-04-03T08:05:48;101025.47;;;21.26
15144;BMP180;7672;50.834;6.286;2023-04-03T08:08:21;101022.72;;;20.88
15144;BMP180;7672;50.834;6.286;2023-04-03T08:10:53;101031.91;;;20.48
15144;BMP180;7672;50.834;6.286;2023-04-03T08:13:21;101033.34;;;20.07
15144;BMP180;7672;50.834;6.286;2023-04-03T08:15:49;101034.38;;;19.96
15144;BMP180;7672;50.834;6.286;2023-04-03T08:18:16;101030.13;;;19.93
15144;BMP180;7672;50.834;6.286;2023-04-03T08:20:43;101030.13;;;19.93
15144;BMP180;7672;50.834;6.286;2023-04-03T08:23:10;101034.44;;;19.90
15144;BMP180;7672;50.834;6.286;2023-04-03T08:25:39;101031.97;;;19.81
15144;BMP180;7672;50.834;6.286;2023-04-03T08:28:09;101027.88;;;19.65
15144;BMP180;7672;50.834;6.286;2023-04-03T08:30:35;101030.00;;;19.32
15144;BMP180;7672;50.834;6.286;2023-04-03T08:33:03;101025.13;;;19.02
15144;BMP180;7672;50.834;6.286;2023-04-03T08:35:30;101026.19;;;18.76
15144;BMP180;7672;50.834;6.286;2023-04-03T08:37:57;101040.88;;;18.53
15144;BMP180;7672;50.834;6.286;2023-04-03T08:40:24;101047.91;;;18.21
15144;BMP180;7672;50.834;6.286;2023-04-03T08:45:40;101041.38;;;17.52
15144;BMP180;7672;50.834;6.286;2023-04-03T08:48:34;101049.09;;;17.28
15144;BMP180;7672;50.834;6.286;2023-04-03T08:51:13;101058.47;;;16.90
15144;BMP180;7672;50.834;6.286;2023-04-03T08:54:03;101055.91;;;16.52
15144;BMP180;7672;50.834;6.286;2023-04-03T08:56:36;101061.75;;;16.22
15144;BMP180;7672;50.834;6.286;2023-04-03T08:59:17;101061.66;;;15.88
15144;BMP180;7672;50.834;6.286;2023-04-03T09:01:46;101053.75;;;15.44
15144;BMP180;7672;50.834;6.286;2023-04-03T09:04:16;101045.22;;;15.36
15144;BMP180;7672;50.834;6.286;2023-04-03T09:06:54;101064.72;;;15.34
15144;BMP180;7672;50.834;6.286;2023-04-03T09:09:34;101063.06;;;15.33
15144;BMP180;7672;50.834;6.286;2023-04-03T09:12:25;101059.72;;;15.48
15144;BMP180;7672;50.834;6.286;2023-04-03T09:18:27;101056.59;;;16.06
15144;BMP180;7672;50.834;6.286;2023-04-03T09:21:24;101068.59;;;16.28
15144;BMP180;7672;50.834;6.286;2023-04-03T09:23:56;101062.72;;;16.53
15144;BMP180;7672;50.834;6.286;2023-04-03T09:26:34;101053.34;;;17.04
15144;BMP180;7672;50.834;6.286;2023-04-03T09:29:07;101060.94;;;17.68
15144;BMP180;7672;50.834;6.286;2023-04-03T09:31:42;101052.97;;;18.32
15144;BMP180;7672;50.834;6.286;2023-04-03T09:34:24;101052.66;;;18.78
15144;BMP180;7672;50.834;6.286;2023-04-03T09:36:56;101044.00;;;18.92
15144;BMP180;7672;50.834;6.286;2023-04-03T09:39:29;101043.00;;;19.11
15144;BMP180;7672;50.834;6.286;2023-04-03T09:42:03;101042.09;;;19.15
15144;BMP180;7672;50.834;6.286;2023-04-03T09:44:37;101037.84;;;19.14
15144;BMP180;7672;50.834;6.286;2023-04-03T09:47:31;101036.94;;;19.20
15144;BMP180;7672;50.834;6.286;2023-04-03T09:52:44;101038.28;;;19.53
15144;BMP180;7672;50.834;6.286;2023-04-03T09:55:17;101028.56;;;19.79
15144;BMP180;7672;50.834;6.286;2023-04-03T09:57:45;101040.28;;;20.04
15144;BMP180;7672;50.834;6.286;2023-04-03T10:00:30;101027.19;;;20.20
15144;BMP180;7672;50.834;6.286;2023-04-03T10:02:58;101033.09;;;20.27
15144;BMP180;7672;50.834;6.286;2023-04-03T10:05:39;101021.03;;;20.30
15144;BMP180;7672;50.834;6.286;2023-04-03T10:08:31;101025.97;;;20.45
15144;BMP180;7672;50.834;6.286;2023-04-03T10:11:17;101020.69;;;20.54
15144;BMP180;7672;50.834;6.286;2023-04-03T10:14:01;101021.63;;;20.48
15144;BMP180;7672;50.834;6.286;2023-04-03T10:16:48;101010.50;;;20.49
15144;BMP180;7672;50.834;6.286;2023-04-03T10:22:12;101008.63;;;20.59
15144;BMP180;7672;50.834;6.286;2023-04-03T10:27:44;101012.81;;;20.66
15144;BMP180;7672;50.834;6.286;2023-04-03T10:42:20;100998.81;;;20.85
15144;BMP180;7672;50.834;6.286;2023-04-03T10:45:15;100994.44;;;20.88
15144;BMP180;7672;50.834;6.286;2023-04-03T10:48:09;100998.78;;;20.86
15144;BMP180;7672;50.834;6.286;2023-04-03T10:56:39;101009.34;;;20.68
15144;BMP180;7672;50.834;6.286;2023-04-03T10:59:32;101003.88;;;20.34
15144;BMP180;7672;50.834;6.286;2023-04-03T11:02:20;101001.78;;;20.01
15144;BMP180;7672;50.834;6.286;2023-04-03T11:04:55;100991.91;;;19.71
15144;BMP180;7672;50.834;6.286;2023-04-03T11:07:31;100993.97;;;19.42
15144;BMP180;7672;50.834;6.286;2023-04-03T11:10:15;100990.84;;;19.15
15144;BMP180;7672;50.834;6.286;2023-04-03T11:12:57;100991.00;;;18.96
15144;BMP180;7672;50.834;6.286;2023-04-03T11:15:30;100988.59;;;18.79
15144;BMP180;7672;50.834;6.286;2023-04-03T11:18:26;100975.09;;;18.61
15144;BMP180;7672;50.834;6.286;2023-04-03T11:21:11;100981.16;;;18.51
15144;BMP180;7672;50.834;6.286;2023-04-03T11:23:40;100983.78;;;18.45
15144;BMP180;7672;50.834;6.286;2023-04-03T11:26:22;100972.72;;;18.36
15144;BMP180;7672;50.834;6.286;2023-04-03T11:29:07;100971.06;;;18.32
15144;BMP180;7672;50.834;6.286;2023-04-03T11:32:11;100966.88;;;18.13
15144;BMP180;7672;50.834;6.286;2023-04-03T11:34:48;100967.06;;;17.89
15144;BMP180;7672;50.834;6.286;2023-04-03T11:37:39;100977.44;;;17.64
15144;BMP180;7672;50.834;6.286;2023-04-03T11:40:24;100983.47;;;17.39
15144;BMP180;7672;50.834;6.286;2023-04-03T11:43:05;100974.13;;;17.16
15144;BMP180;7672;50.834;6.286;2023-04-03T11:46:06;100971.63;;;16.96
15144;BMP180;7672;50.834;6.286;2023-04-03T12:00:49;100943.41;;;15.65
15144;BMP180;7672;50.834;6.286;2023-04-03T12:19:27;100927.66;;;14.75
15144;BMP180;7672;50.834;6.286;2023-04-03T12:22:12;100931.81;;;14.62
15144;BMP180;7672;50.834;6.286;2023-04-03T12:24:43;100923.25;;;14.51
15144;BMP180;7672;50.834;6.286;2023-04-03T12:27:33;100910.44;;;14.39
15144;BMP180;7672;50.834;6.286;2023-04-03T12:32:49;100915.34;;;14.20
15144;BMP180;7672;50.834;6.286;2023-04-03T12:38:45;100925.34;;;14.04
15144;BMP180;7672;50.834;6.286;2023-04-03T12:41:36;100912.53;;;13.95
15144;BMP180;7672;50.834;6.286;2023-04-03T12:49:52;100912.44;;;13.84
15144;BMP180;7672;50.834;6.286;2023-04-03T12:52:48;100916.69;;;13.84
15144;BMP180;7672;50.834;6.286;2023-04-03T12:55:20;100909.00;;;13.81
15144;BMP180;7672;50.834;6.286;2023-04-03T12:57:47;100910.72;;;13.82
15144;BMP180;7672;50.834;6.286;2023-04-03T13:00:31;100909.88;;;13.83
15144;BMP180;7672;50.834;6.286;2023-04-03T13:03:02;100901.44;;;13.84
15144;BMP180;7672;50.834;6.286;2023-04-03T13:05:31;100909.88;;;13.83
15144;BMP180;7672;50.834;6.286;2023-04-03T13:08:12;100904.78;;;13.81
15144;BMP180;7672;50.834;6.286;2023-04-03T13:11:09;100902.19;;;13.74
15144;BMP180;7672;50.834;6.286;2023-04-03T13:13:37;100886.91;;;13.72
15144;BMP180;7672;50.834;6.286;2023-04-03T13:16:16;100883.56;;;13.76
15144;BMP180;7672;50.834;6.286;2023-04-03T13:18:53;100889.50;;;13.78
15144;BMP180;7672;50.834;6.286;2023-04-03T13:21:27;100881.06;;;13.81
15144;BMP180;7672;50.834;6.286;2023-04-03T13:24:01;100880.22;;;13.82
15144;BMP180;7672;50.834;6.286;2023-04-03T13:26:42;100876.03;;;13.87
15144;BMP180;7672;50.834;6.286;2023-04-03T13:29:28;100885.38;;;13.91
15144;BMP180;7672;50.834;6.286;2023-04-03T13:31:59;100874.38;;;13.90
15144;BMP180;7672;50.834;6.286;2023-04-03T13:34:38;100872.66;;;13.86
15144;BMP180;7672;50.834;6.286;2023-04-03T13:37:05;100876.84;;;13.83
15144;BMP180;7672;50.834;6.286;2023-04-03T13:39:36;100860.75;;;13.82
15144;BMP180;7672;50.834;6.286;2023-04-03T13:42:25;100859.03;;;13.80
15144;BMP180;7672;50.834;6.286;2023-04-03T13:45:26;100853.09;;;13.81
15144;BMP180;7672;50.834;6.286;2023-04-03T13:48:19;100864.97;;;13.80
15144;BMP180;7672;50.834;6.286;2023-04-03T13:51:27;100865.78;;;13.78
15144;BMP180;7672;50.834;6.286;2023-04-03T13:54:00;100850.53;;;13.75
15144;BMP180;7672;50.834;6.286;2023-04-03T13:56:37;100846.28;;;13.77
15144;BMP180;7672;50.834;6.286;2023-04-03T14:04:24;100859.13;;;13.92
15144;BMP180;7672;50.834;6.286;2023-04-03T14:06:52;100856.63;;;13.95
15144;BMP180;7672;50.834;6.286;2023-04-03T14:09:23;100841.34;;;13.90
15144;BMP180;7672;50.834;6.286;2023-04-03T14:11:55;100842.16;;;13.88
15144;BMP180;7672;50.834;6.286;2023-04-03T14:14:30;100852.31;;;13.85
15144;BMP180;7672;50.834;6.286;2023-04-03T14:17:01;100843.75;;;13.78
15144;BMP180;7672;50.834;6.286;2023-04-03T14:19:33;100835.28;;;13.75
15144;BMP180;7672;50.834;6.286;2023-04-03T14:22:12;100836.09;;;13.74
15144;BMP180;7672;50.834;6.286;2023-04-03T14:24:39;100837.78;;;13.72
15144;BMP180;7672;50.834;6.286;2023-04-03T14:27:25;100830.19;;;13.73
15144;BMP180;7672;50.834;6.286;2023-04-03T14:29:56;100828.47;;;13.71
15144;BMP180;7672;50.834;6.286;2023-04-03T14:32:26;100830.97;;;13.68
15144;BMP180;7672;50.834;6.286;2023-04-03T14:34:54;100821.59;;;13.64
15144;BMP180;7672;50.834;6.286;2023-04-03T14:37:25;100828.34;;;13.59
15144;BMP180;7672;50.834;6.286;2023-04-03T14:39:56;100824.94;;;13.57
15144;BMP180;7672;50.834;6.286;2023-04-03T14:42:30;100807.13;;;13.56
15144;BMP180;7672;50.834;6.286;2023-04-03T14:44:59;100824.88;;;13.51
15144;BMP180;7672;50.834;6.286;2023-04-03T14:47:29;100824.81;;;13.47
15144;BMP180;7672;50.834;6.286;2023-04-03T14:50:01;100805.31;;;13.41
15144;BMP180;7672;50.834;6.286;2023-04-03T14:52:35;100818.84;;;13.42
15144;BMP180;7672;50.834;6.286;2023-04-03T14:55:05;100818.00;;;13.40
15144;BMP180;7672;50.834;6.286;2023-04-03T14:57:33;100808.66;;;13.37
15144;BMP180;7672;50.834;6.286;2023-04-03T15:00:01;100809.47;;;13.35
15144;BMP180;7672;50.834;6.286;2023-04-03T15:02:33;100800.94;;;13.28
15144;BMP180;7672;50.834;6.286;2023-04-03T15:05:04;100799.22;;;13.27
15144;BMP180;7672;50.834;6.286;2023-04-03T15:07:36;100798.34;;;13.24
15144;BMP180;7672;50.834;6.286;2023-04-03T15:10:26;100799.16;;;13.21
15144;BMP180;7672;50.834;6.286;2023-04-03T15:12:54;100793.16;;;13.16
15144;BMP180;7672;50.834;6.286;2023-04-03T15:15:23;100791.44;;;13.12
15144;BMP180;7672;50.834;6.286;2023-04-03T15:17:54;100789.69;;;13.07
15144;BMP180;7672;50.834;6.286;2023-04-03T15:20:26;100803.19;;;13.04
15144;BMP180;7672;50.834;6.286;2023-04-03T15:22:54;100794.69;;;13.01
15144;BMP180;7672;50.834;6.286;2023-04-03T15:25:24;100798.94;;;13.00
15144;BMP180;7672;50.834;6.286;2023-04-03T15:27:56;100803.13;;;13.00
15144;BMP180;7672;50.834;6.286;2023-04-03T15:30:24;100802.25;;;12.95
15144;BMP180;7672;50.834;6.286;2023-04-03T15:32:51;100783.63;;;12.93
15144;BMP180;7672;50.834;6.286;2023-04-03T15:35:18;100794.56;;;12.88
15144;BMP180;7672;50.834;6.286;2023-04-03T15:37:45;100800.38;;;12.84
15144;BMP180;7672;50.834;6.286;2023-04-03T15:40:13;100793.59;;;12.81
15144;BMP180;7672;50.834;6.286;2023-04-03T15:42:40;100787.66;;;12.81
15144;BMP180;7672;50.834;6.286;2023-04-03T15:45:08;100791.06;;;12.83
15144;BMP180;7672;50.834;6.286;2023-04-03T15:47:35;100794.44;;;12.83
15144;BMP180;7672;50.834;6.286;2023-04-03T15:50:04;100787.69;;;12.84
15144;BMP180;7672;50.834;6.286;2023-04-03T15:52:34;100792.69;;;12.78
15144;BMP180;7672;50.834;6.286;2023-04-03T15:55:01;100785.06;;;12.76
15144;BMP180;7672;50.834;6.286;2023-04-03T15:57:28;100795.16;;;12.72
15144;BMP180;7672;50.834;6.286;2023-04-03T16:00:00;100793.41;;;12.68
15144;BMP180;7672;50.834;6.286;2023-04-03T16:02:27;100795.88;;;12.62
15144;BMP180;7672;50.834;6.286;2023-04-03T16:04:55;100795.84;;;12.59